sensor_id;sensor_type;location;lat;lon;timestamp;pressure;altitude;pressure_sealevel;temperature;humidity
30730;BME280;17476;48.458;7.928;2024-02-23T00:01:15;98225.66;;;8.16;92.12
30730;BME280;17476;48.458;7.928;2024-02-23T00:03:41;98246.22;;;8.11;91.35
30730;BME280;17476;48.458;7.928;2024-02-23T00:06:07;98246.66;;;8.14;92.13
30730;BME280;17476;48.458;7.928;2024-02-23T00:08:34;98249.56;;;8.33;91.38
30730;BME280;17476;48.458;7.928;2024-02-23T00:11:00;98241.69;;;8.19;90.40
30730;BME280;17476;48.458;7.928;2024-02-23T00:13:25;98244.63;;;8.38;89.39
30730;BME280;17476;48.458;7.928;2024-02-23T00:15:51;98230.63;;;8.39;88.06
30730;BME280;17476;48.458;7.928;2024-02-23T00:18:17;98224.00;;;8.36;88.49
30730;BME280;17476;48.458;7.928;2024-02-23T00:20:43;98225.16;;;8.34;88.15
30730;BME280;17476;48.458;7.928;2024-02-23T00:23:09;98218.16;;;8.34;88.10
30730;BME280;17476;48.458;7.928;2024-02-23T00:25:35;98224.41;;;8.40;87.43
30730;BME280;17476;48.458;7.928;2024-02-23T00:28:00;98235.03;;;8.38;87.98
30730;BME280;17476;48.458;7.928;2024-02-23T00:30:26;98241.28;;;8.44;88.02
30730;BME280;17476;48.458;7.928;2024-02-23T00:32:52;98234.38;;;8.64;86.82
30730;BME280;17476;48.458;7.928;2024-02-23T00:35:18;98227.66;;;8.42;84.67
30730;BME280;17476;48.458;7.928;2024-02-23T00:37:44;98231.63;;;8.38;85.55
30730;BME280;17476;48.458;7.928;2024-02-23T00:40:11;98227.78;;;8.34;84.83
30730;BME280;17476;48.458;7.928;2024-02-23T00:42:37;98223.19;;;8.36;85.31
30730;BME280;17476;48.458;7.928;2024-02-23T00:45:03;98225.81;;;8.36;85.09
30730;BME280;17476;48.458;7.928;2024-02-23T00:47:29;98230.75;;;8.31;85.92
30730;BME280;17476;48.458;7.928;2024-02-23T00:49:54;98250.16;;;8.28;84.50
30730;BME280;17476;48.458;7.928;2024-02-23T00:52:20;98238.81;;;8.36;83.48
30730;BME280;17476;48.458;7.928;2024-02-23T00:54:46;98242.84;;;8.38;82.44
30730;BME280;17476;48.458;7.928;2024-02-23T00:57:12;98251.66;;;8.37;81.92
30730;BME280;17476;48.458;7.928;2024-02-23T00:59:37;98250.84;;;8.37;82.20
30730;BME280;17476;48.458;7.928;2024-02-23T01:02:03;98263.88;;;8.37;82.41
30730;BME280;17476;48.458;7.928;2024-02-23T01:04:30;98267.81;;;8.33;83.38
30730;BME280;17476;48.458;7.928;2024-02-23T01:06:58;98275.81;;;8.31;82.36
30730;BME280;17476;48.458;7.928;2024-02-23T01:09:23;98278.63;;;8.30;81.83
30730;BME280;17476;48.458;7.928;2024-02-23T01:11:49;98289.03;;;8.30;82.64
30730;BME280;17476;48.458;7.928;2024-02-23T01:14:15;98283.09;;;8.36;81.97
30730;BME280;17476;48.458;7.928;2024-02-23T01:16:41;98287.84;;;8.32;83.19
30730;BME280;17476;48.458;7.928;2024-02-23T01:19:07;98294.56;;;8.41;81.98
30730;BME280;17476;48.458;7.928;2024-02-23T01:21:33;98291.63;;;8.30;81.42
30730;BME280;17476;48.458;7.928;2024-02-23T01:23:58;98314.47;;;8.28;81.82
30730;BME280;17476;48.458;7.928;2024-02-23T01:26:26;98310.25;;;8.27;79.81
30730;BME280;17476;48.458;7.928;2024-02-23T01:28:53;98313.97;;;8.17;80.32
30730;BME280;17476;48.458;7.928;2024-02-23T01:31:19;98316.22;;;8.20;80.39
30730;BME280;17476;48.458;7.928;2024-02-23T01:33:44;98309.81;;;8.23;79.95
30730;BME280;17476;48.458;7.928;2024-02-23T01:36:10;98313.38;;;8.15;80.72
30730;BME280;17476;48.458;7.928;2024-02-23T01:38:36;98313.13;;;8.10;78.96
30730;BME280;17476;48.458;7.928;2024-02-23T01:41:02;98313.31;;;8.09;77.45
30730;BME280;17476;48.458;7.928;2024-02-23T01:43:28;98311.31;;;8.11;76.83
30730;BME280;17476;48.458;7.928;2024-02-23T01:45:54;98320.13;;;8.10;77.55
30730;BME280;17476;48.458;7.928;2024-02-23T01:48:20;98314.25;;;8.01;77.73
30730;BME280;17476;48.458;7.928;2024-02-23T01:50:47;98310.84;;;8.01;77.53
30730;BME280;17476;48.458;7.928;2024-02-23T01:53:13;98307.84;;;8.04;78.43
30730;BME280;17476;48.458;7.928;2024-02-23T01:55:42;98307.81;;;7.97;79.43
30730;BME280;17476;48.458;7.928;2024-02-23T01:58:09;98316.59;;;7.96;78.56
30730;BME280;17476;48.458;7.928;2024-02-23T02:00:35;98321.00;;;7.96;77.22
30730;BME280;17476;48.458;7.928;2024-02-23T02:03:03;98320.88;;;8.04;76.58
30730;BME280;17476;48.458;7.928;2024-02-23T02:05:28;98311.41;;;7.96;75.45
30730;BME280;17476;48.458;7.928;2024-02-23T02:07:55;98315.94;;;7.87;76.43
30730;BME280;17476;48.458;7.928;2024-02-23T02:10:25;98301.47;;;7.85;76.83
30730;BME280;17476;48.458;7.928;2024-02-23T02:12:51;98303.72;;;7.88;76.79
30730;BME280;17476;48.458;7.928;2024-02-23T02:15:17;98299.13;;;7.90;75.84
30730;BME280;17476;48.458;7.928;2024-02-23T02:17:43;98302.53;;;7.90;75.69
30730;BME280;17476;48.458;7.928;2024-02-23T02:20:12;98292.25;;;7.82;75.30
30730;BME280;17476;48.458;7.928;2024-02-23T02:22:39;98303.19;;;7.92;75.82
30730;BME280;17476;48.458;7.928;2024-02-23T02:25:06;98299.94;;;7.90;75.19
30730;BME280;17476;48.458;7.928;2024-02-23T02:27:32;98303.19;;;7.92;75.52
30730;BME280;17476;48.458;7.928;2024-02-23T02:29:58;98303.84;;;7.80;75.60
30730;BME280;17476;48.458;7.928;2024-02-23T02:32:24;98305.38;;;7.96;74.05
30730;BME280;17476;48.458;7.928;2024-02-23T02:34:50;98289.78;;;7.74;72.06
30730;BME280;17476;48.458;7.928;2024-02-23T02:37:15;98299.25;;;7.82;70.41
30730;BME280;17476;48.458;7.928;2024-02-23T02:39:41;98303.53;;;7.89;70.21
30730;BME280;17476;48.458;7.928;2024-02-23T02:42:07;98304.19;;;7.98;71.06
30730;BME280;17476;48.458;7.928;2024-02-23T02:44:33;98296.16;;;7.93;71.05
30730;BME280;17476;48.458;7.928;2024-02-23T02:46:59;98294.19;;;7.95;70.27
30730;BME280;17476;48.458;7.928;2024-02-23T02:49:24;98298.06;;;7.84;70.59
30730;BME280;17476;48.458;7.928;2024-02-23T02:51:50;98298.88;;;7.85;71.49
30730;BME280;17476;48.458;7.928;2024-02-23T02:54:16;98281.41;;;7.79;71.29
30730;BME280;17476;48.458;7.928;2024-02-23T02:56:43;98275.84;;;7.82;70.56
30730;BME280;17476;48.458;7.928;2024-02-23T02:59:09;98275.72;;;7.69;70.95
30730;BME280;17476;48.458;7.928;2024-02-23T03:01:36;98271.19;;;7.77;71.23
30730;BME280;17476;48.458;7.928;2024-02-23T03:04:01;98273.97;;;7.76;71.69
30730;BME280;17476;48.458;7.928;2024-02-23T03:06:27;98279.38;;;7.74;72.65
30730;BME280;17476;48.458;7.928;2024-02-23T03:08:53;98274.97;;;7.75;76.85
30730;BME280;17476;48.458;7.928;2024-02-23T03:11:19;98270.25;;;7.63;82.50
30730;BME280;17476;48.458;7.928;2024-02-23T03:13:44;98269.78;;;7.53;86.01
30730;BME280;17476;48.458;7.928;2024-02-23T03:16:18;98266.66;;;7.43;89.36
30730;BME280;17476;48.458;7.928;2024-02-23T03:18:44;98261.56;;;7.35;91.22
30730;BME280;17476;48.458;7.928;2024-02-23T03:21:10;98260.31;;;7.46;92.18
30730;BME280;17476;48.458;7.928;2024-02-23T03:23:36;98255.66;;;7.41;92.57
30730;BME280;17476;48.458;7.928;2024-02-23T03:26:02;98256.38;;;7.35;93.83
30730;BME280;17476;48.458;7.928;2024-02-23T03:28:28;98267.84;;;7.41;94.59
30730;BME280;17476;48.458;7.928;2024-02-23T03:30:54;98255.94;;;7.31;94.74
30730;BME280;17476;48.458;7.928;2024-02-23T03:33:20;98258.53;;;7.31;95.73
30730;BME280;17476;48.458;7.928;2024-02-23T03:35:46;98263.56;;;7.33;96.21
30730;BME280;17476;48.458;7.928;2024-02-23T03:38:11;98270.25;;;7.42;96.09
30730;BME280;17476;48.458;7.928;2024-02-23T03:40:37;98272.16;;;7.33;94.94
30730;BME280;17476;48.458;7.928;2024-02-23T03:43:03;98269.78;;;7.17;95.83
30730;BME280;17476;48.458;7.928;2024-02-23T03:45:29;98271.56;;;7.17;94.44
30730;BME280;17476;48.458;7.928;2024-02-23T03:47:55;98277.88;;;7.07;93.77
30730;BME280;17476;48.458;7.928;2024-02-23T03:50:21;98272.22;;;7.19;93.79
30730;BME280;17476;48.458;7.928;2024-02-23T03:52:46;98263.13;;;7.29;90.44
30730;BME280;17476;48.458;7.928;2024-02-23T03:55:12;98265.50;;;7.09;90.82
30730;BME280;17476;48.458;7.928;2024-02-23T03:57:38;98263.00;;;7.01;91.64
30730;BME280;17476;48.458;7.928;2024-02-23T04:00:05;98269.00;;;7.02;90.70
30730;BME280;17476;48.458;7.928;2024-02-23T04:02:31;98268.09;;;7.09;91.05
30730;BME280;17476;48.458;7.928;2024-02-23T04:04:57;98273.56;;;7.15;90.75
30730;BME280;17476;48.458;7.928;2024-02-23T04:07:23;98278.94;;;7.13;91.41
30730;BME280;17476;48.458;7.928;2024-02-23T04:09:49;98276.97;;;7.15;91.26
30730;BME280;17476;48.458;7.928;2024-02-23T04:12:18;98269.63;;;7.19;92.22
30730;BME280;17476;48.458;7.928;2024-02-23T04:14:45;98273.28;;;7.09;92.69
30730;BME280;17476;48.458;7.928;2024-02-23T04:17:11;98268.00;;;7.03;90.34
30730;BME280;17476;48.458;7.928;2024-02-23T04:19:43;98261.13;;;6.95;91.90
30730;BME280;17476;48.458;7.928;2024-02-23T04:22:09;98267.03;;;6.89;93.29
30730;BME280;17476;48.458;7.928;2024-02-23T04:24:39;98270.81;;;6.87;94.23
30730;BME280;17476;48.458;7.928;2024-02-23T04:27:06;98267.03;;;6.89;95.02
30730;BME280;17476;48.458;7.928;2024-02-23T04:29:32;98273.66;;;7.06;95.80
30730;BME280;17476;48.458;7.928;2024-02-23T04:32:01;98267.75;;;7.13;95.55
30730;BME280;17476;48.458;7.928;2024-02-23T04:34:28;98262.28;;;7.07;95.30
30730;BME280;17476;48.458;7.928;2024-02-23T04:36:54;98262.38;;;6.99;95.66
30730;BME280;17476;48.458;7.928;2024-02-23T04:39:21;98266.94;;;6.97;95.84
30730;BME280;17476;48.458;7.928;2024-02-23T04:41:47;98264.34;;;6.97;95.73
30730;BME280;17476;48.458;7.928;2024-02-23T04:44:13;98265.19;;;6.98;96.14
30730;BME280;17476;48.458;7.928;2024-02-23T04:46:38;98274.91;;;7.10;94.80
30730;BME280;17476;48.458;7.928;2024-02-23T04:49:04;98279.75;;;7.14;94.43
30730;BME280;17476;48.458;7.928;2024-02-23T04:51:30;98275.16;;;7.16;95.35
30730;BME280;17476;48.458;7.928;2024-02-23T04:53:55;98278.50;;;7.09;94.41
30730;BME280;17476;48.458;7.928;2024-02-23T04:56:21;98266.22;;;7.03;93.57
30730;BME280;17476;48.458;7.928;2024-02-23T04:58:47;98268.72;;;7.11;94.49
30730;BME280;17476;48.458;7.928;2024-02-23T05:01:13;98273.94;;;7.11;94.21
30730;BME280;17476;48.458;7.928;2024-02-23T05:03:39;98263.84;;;7.23;94.63
30730;BME280;17476;48.458;7.928;2024-02-23T05:06:05;98272.53;;;7.30;94.99
30730;BME280;17476;48.458;7.928;2024-02-23T05:08:31;98278.91;;;7.28;93.68
30730;BME280;17476;48.458;7.928;2024-02-23T05:10:57;98273.19;;;7.18;93.74
30730;BME280;17476;48.458;7.928;2024-02-23T05:13:23;98284.22;;;7.20;94.03
30730;BME280;17476;48.458;7.928;2024-02-23T05:15:49;98280.97;;;7.32;95.25
30730;BME280;17476;48.458;7.928;2024-02-23T05:18:15;98286.72;;;7.28;93.87
30730;BME280;17476;48.458;7.928;2024-02-23T05:20:41;98285.78;;;7.35;93.92
30730;BME280;17476;48.458;7.928;2024-02-23T05:23:07;98288.03;;;7.38;94.18
30730;BME280;17476;48.458;7.928;2024-02-23T05:25:34;98284.38;;;7.33;94.10
30730;BME280;17476;48.458;7.928;2024-02-23T05:28:00;98276.72;;;7.31;93.95
30730;BME280;17476;48.458;7.928;2024-02-23T05:30:25;98276.31;;;7.28;92.94
30730;BME280;17476;48.458;7.928;2024-02-23T05:32:53;98271.78;;;7.36;93.90
30730;BME280;17476;48.458;7.928;2024-02-23T05:35:19;98270.19;;;7.35;93.61
30730;BME280;17476;48.458;7.928;2024-02-23T05:37:44;98263.13;;;7.29;90.91
30730;BME280;17476;48.458;7.928;2024-02-23T05:40:10;98266.72;;;7.28;91.19
30730;BME280;17476;48.458;7.928;2024-02-23T05:42:36;98271.19;;;7.34;91.87
30730;BME280;17476;48.458;7.928;2024-02-23T05:45:03;98270.56;;;7.32;92.43
30730;BME280;17476;48.458;7.928;2024-02-23T05:47:37;98266.59;;;7.36;93.59
30730;BME280;17476;48.458;7.928;2024-02-23T05:50:04;98258.91;;;7.28;95.21
30730;BME280;17476;48.458;7.928;2024-02-23T05:52:32;98271.94;;;7.14;93.59
30730;BME280;17476;48.458;7.928;2024-02-23T05:54:58;98269.09;;;7.08;93.38
30730;BME280;17476;48.458;7.928;2024-02-23T05:57:26;98286.47;;;7.08;92.43
30730;BME280;17476;48.458;7.928;2024-02-23T05:59:53;98277.88;;;7.07;91.67
30730;BME280;17476;48.458;7.928;2024-02-23T06:02:19;98288.09;;;7.09;91.69
30730;BME280;17476;48.458;7.928;2024-02-23T06:04:45;98297.50;;;7.10;91.37
30730;BME280;17476;48.458;7.928;2024-02-23T06:07:11;98293.75;;;7.13;90.79
30730;BME280;17476;48.458;7.928;2024-02-23T06:09:36;98294.09;;;7.09;91.46
30730;BME280;17476;48.458;7.928;2024-02-23T06:12:02;98283.50;;;7.11;89.66
30730;BME280;17476;48.458;7.928;2024-02-23T06:14:28;98285.97;;;6.98;89.55
30730;BME280;17476;48.458;7.928;2024-02-23T06:16:54;98284.69;;;6.94;90.23
30730;BME280;17476;48.458;7.928;2024-02-23T06:19:20;98276.22;;;6.85;89.42
30730;BME280;17476;48.458;7.928;2024-02-23T06:21:48;98274.13;;;6.95;88.60
30730;BME280;17476;48.458;7.928;2024-02-23T06:24:16;98273.50;;;6.93;88.65
30730;BME280;17476;48.458;7.928;2024-02-23T06:26:42;98274.66;;;6.91;88.14
30730;BME280;17476;48.458;7.928;2024-02-23T06:29:08;98269.03;;;6.87;88.60
30730;BME280;17476;48.458;7.928;2024-02-23T06:31:38;98271.00;;;6.85;89.31
30730;BME280;17476;48.458;7.928;2024-02-23T06:34:08;98277.72;;;6.79;87.53
30730;BME280;17476;48.458;7.928;2024-02-23T06:36:34;98276.63;;;6.89;87.68
30730;BME280;17476;48.458;7.928;2024-02-23T06:38:59;98271.91;;;6.77;87.98
30730;BME280;17476;48.458;7.928;2024-02-23T06:41:25;98282.38;;;6.84;88.52
30730;BME280;17476;48.458;7.928;2024-02-23T06:43:52;98270.28;;;6.91;87.19
30730;BME280;17476;48.458;7.928;2024-02-23T06:46:19;98275.41;;;6.84;84.93
30730;BME280;17476;48.458;7.928;2024-02-23T06:48:46;98272.63;;;6.86;85.08
30730;BME280;17476;48.458;7.928;2024-02-23T06:51:11;98284.31;;;6.97;87.09
30730;BME280;17476;48.458;7.928;2024-02-23T06:53:37;98273.78;;;6.98;87.56
30730;BME280;17476;48.458;7.928;2024-02-23T06:56:03;98287.72;;;6.97;88.04
30730;BME280;17476;48.458;7.928;2024-02-23T06:58:29;98300.22;;;6.87;86.34
30730;BME280;17476;48.458;7.928;2024-02-23T07:00:55;98298.69;;;6.93;86.73
30730;BME280;17476;48.458;7.928;2024-02-23T07:03:21;98300.63;;;6.91;86.67
30730;BME280;17476;48.458;7.928;2024-02-23T07:05:47;98300.09;;;6.95;85.29
30730;BME280;17476;48.458;7.928;2024-02-23T07:08:13;98301.63;;;7.04;85.91
30730;BME280;17476;48.458;7.928;2024-02-23T07:10:39;98294.53;;;7.13;86.65
30730;BME280;17476;48.458;7.928;2024-02-23T07:13:05;98293.97;;;7.18;85.74
30730;BME280;17476;48.458;7.928;2024-02-23T07:15:33;98297.56;;;7.17;84.18
30730;BME280;17476;48.458;7.928;2024-02-23T07:17:59;98294.44;;;7.21;84.64
30730;BME280;17476;48.458;7.928;2024-02-23T07:20:24;98294.78;;;7.33;85.49
30730;BME280;17476;48.458;7.928;2024-02-23T07:22:50;98302.69;;;7.25;84.67
30730;BME280;17476;48.458;7.928;2024-02-23T07:25:17;98302.38;;;7.34;84.11
30730;BME280;17476;48.458;7.928;2024-02-23T07:27:44;98296.56;;;7.32;83.23
30730;BME280;17476;48.458;7.928;2024-02-23T07:30:12;98304.19;;;7.34;82.20
30730;BME280;17476;48.458;7.928;2024-02-23T07:32:37;98301.66;;;7.41;82.79
30730;BME280;17476;48.458;7.928;2024-02-23T07:35:04;98286.41;;;7.37;81.07
30730;BME280;17476;48.458;7.928;2024-02-23T07:37:30;98294.59;;;7.34;80.55
30730;BME280;17476;48.458;7.928;2024-02-23T07:39:56;98290.72;;;7.30;80.36
30730;BME280;17476;48.458;7.928;2024-02-23T07:42:25;98294.84;;;7.39;80.93
30730;BME280;17476;48.458;7.928;2024-02-23T07:44:51;98286.66;;;7.43;80.26
30730;BME280;17476;48.458;7.928;2024-02-23T07:47:17;98292.06;;;7.41;81.71
30730;BME280;17476;48.458;7.928;2024-02-23T07:49:43;98295.66;;;7.40;79.87
30730;BME280;17476;48.458;7.928;2024-02-23T07:52:08;98292.25;;;7.39;79.69
30730;BME280;17476;48.458;7.928;2024-02-23T07:54:34;98299.31;;;7.31;80.62
30730;BME280;17476;48.458;7.928;2024-02-23T07:57:00;98289.31;;;7.28;78.42
30730;BME280;17476;48.458;7.928;2024-02-23T07:59:26;98288.13;;;7.30;78.65
30730;BME280;17476;48.458;7.928;2024-02-23T08:01:51;98283.72;;;7.46;79.89
30730;BME280;17476;48.458;7.928;2024-02-23T08:04:17;98280.25;;;7.60;79.17
30730;BME280;17476;48.458;7.928;2024-02-23T08:06:43;98270.03;;;7.80;79.57
30730;BME280;17476;48.458;7.928;2024-02-23T08:09:09;98272.69;;;7.86;77.98
30730;BME280;17476;48.458;7.928;2024-02-23T08:11:35;98272.47;;;8.09;77.41
30730;BME280;17476;48.458;7.928;2024-02-23T08:14:01;98276.16;;;8.21;77.28
30730;BME280;17476;48.458;7.928;2024-02-23T08:16:28;98271.13;;;8.41;75.97
30730;BME280;17476;48.458;7.928;2024-02-23T08:18:54;98265.22;;;8.61;75.11
30730;BME280;17476;48.458;7.928;2024-02-23T08:21:20;98271.16;;;8.83;73.93
30730;BME280;17476;48.458;7.928;2024-02-23T08:23:46;98272.56;;;8.85;73.57
30730;BME280;17476;48.458;7.928;2024-02-23T08:26:12;98264.38;;;8.88;72.39
30730;BME280;17476;48.458;7.928;2024-02-23T08:28:38;98270.75;;;8.86;71.28
30730;BME280;17476;48.458;7.928;2024-02-23T08:31:03;98275.16;;;8.85;72.44
30730;BME280;17476;48.458;7.928;2024-02-23T08:33:30;98276.38;;;8.83;71.95
30730;BME280;17476;48.458;7.928;2024-02-23T08:35:56;98271.97;;;8.83;73.13
30730;BME280;17476;48.458;7.928;2024-02-23T08:38:21;98277.16;;;8.83;71.49
30730;BME280;17476;48.458;7.928;2024-02-23T08:40:47;98277.94;;;8.77;70.43
30730;BME280;17476;48.458;7.928;2024-02-23T08:43:13;98277.56;;;8.87;71.49
30730;BME280;17476;48.458;7.928;2024-02-23T08:45:39;98278.53;;;8.79;69.17
30730;BME280;17476;48.458;7.928;2024-02-23T08:48:05;98267.53;;;8.84;71.53
30730;BME280;17476;48.458;7.928;2024-02-23T08:50:32;98256.94;;;8.92;71.90
30730;BME280;17476;48.458;7.928;2024-02-23T08:52:58;98263.78;;;8.99;71.51
30730;BME280;17476;48.458;7.928;2024-02-23T08:55:23;98260.31;;;8.86;71.01
30730;BME280;17476;48.458;7.928;2024-02-23T08:57:50;98260.41;;;9.06;69.03
30730;BME280;17476;48.458;7.928;2024-02-23T09:00:16;98266.09;;;9.22;70.49
30730;BME280;17476;48.458;7.928;2024-02-23T09:02:42;98274.13;;;9.34;70.40
30730;BME280;17476;48.458;7.928;2024-02-23T09:05:09;98264.75;;;9.46;68.91
30730;BME280;17476;48.458;7.928;2024-02-23T09:07:35;98267.97;;;9.62;67.46
30730;BME280;17476;48.458;7.928;2024-02-23T09:10:02;98271.97;;;9.44;68.25
30730;BME280;17476;48.458;7.928;2024-02-23T09:12:30;98270.56;;;9.35;70.08
30730;BME280;17476;48.458;7.928;2024-02-23T09:14:56;98263.69;;;9.34;71.36
30730;BME280;17476;48.458;7.928;2024-02-23T09:17:21;98264.50;;;9.35;71.84
30730;BME280;17476;48.458;7.928;2024-02-23T09:19:48;98257.31;;;9.37;70.40
30730;BME280;17476;48.458;7.928;2024-02-23T09:22:14;98250.50;;;9.42;70.42
30730;BME280;17476;48.458;7.928;2024-02-23T09:24:41;98242.06;;;9.47;71.02
30730;BME280;17476;48.458;7.928;2024-02-23T09:27:07;98247.09;;;9.55;71.86
30730;BME280;17476;48.458;7.928;2024-02-23T09:29:33;98240.25;;;9.47;70.65
30730;BME280;17476;48.458;7.928;2024-02-23T09:31:59;98243.50;;;9.56;70.00
30730;BME280;17476;48.458;7.928;2024-02-23T09:34:26;98243.09;;;9.59;69.74
30730;BME280;17476;48.458;7.928;2024-02-23T09:36:51;98230.84;;;9.86;68.08
30730;BME280;17476;48.458;7.928;2024-02-23T09:39:17;98231.44;;;10.15;68.86
30730;BME280;17476;48.458;7.928;2024-02-23T09:41:43;98229.22;;;10.45;69.03
30730;BME280;17476;48.458;7.928;2024-02-23T09:44:09;98217.78;;;10.39;68.55
30730;BME280;17476;48.458;7.928;2024-02-23T09:46:40;98231.88;;;10.31;66.59
30730;BME280;17476;48.458;7.928;2024-02-23T09:49:07;98216.75;;;10.47;67.58
30730;BME280;17476;48.458;7.928;2024-02-23T09:51:34;98218.91;;;10.63;64.64
30730;BME280;17476;48.458;7.928;2024-02-23T09:54:01;98219.88;;;10.75;64.67
30730;BME280;17476;48.458;7.928;2024-02-23T09:56:28;98222.72;;;10.67;63.39
30730;BME280;17476;48.458;7.928;2024-02-23T09:58:58;98223.75;;;10.66;64.51
30730;BME280;17476;48.458;7.928;2024-02-23T10:01:28;98211.38;;;10.86;65.68
30730;BME280;17476;48.458;7.928;2024-02-23T10:03:57;98213.97;;;10.93;62.51
30730;BME280;17476;48.458;7.928;2024-02-23T10:06:27;98219.94;;;11.07;64.09
30730;BME280;17476;48.458;7.928;2024-02-23T10:08:53;98222.03;;;10.91;62.72
30730;BME280;17476;48.458;7.928;2024-02-23T10:11:23;98218.63;;;10.91;61.36
30730;BME280;17476;48.458;7.928;2024-02-23T10:13:50;98226.97;;;10.55;62.78
30730;BME280;17476;48.458;7.928;2024-02-23T10:16:16;98236.63;;;10.54;64.95
30730;BME280;17476;48.458;7.928;2024-02-23T10:18:42;98226.16;;;10.61;63.64
30730;BME280;17476;48.458;7.928;2024-02-23T10:21:08;98217.88;;;10.77;63.18
30730;BME280;17476;48.458;7.928;2024-02-23T10:23:34;98213.38;;;10.91;62.41
30730;BME280;17476;48.458;7.928;2024-02-23T10:26:00;98216.69;;;11.18;64.30
30730;BME280;17476;48.458;7.928;2024-02-23T10:28:25;98212.94;;;11.64;63.26
30730;BME280;17476;48.458;7.928;2024-02-23T10:30:53;98209.19;;;12.10;61.33
30730;BME280;17476;48.458;7.928;2024-02-23T10:33:23;98213.63;;;11.84;58.86
30730;BME280;17476;48.458;7.928;2024-02-23T10:35:56;98217.78;;;11.92;60.72
30730;BME280;17476;48.458;7.928;2024-02-23T10:38:23;98220.44;;;12.53;57.85
30730;BME280;17476;48.458;7.928;2024-02-23T10:40:50;98221.53;;;12.02;54.91
30730;BME280;17476;48.458;7.928;2024-02-23T10:43:20;98220.75;;;12.02;55.88
30730;BME280;17476;48.458;7.928;2024-02-23T10:45:50;98216.44;;;12.69;53.73
30730;BME280;17476;48.458;7.928;2024-02-23T10:48:17;98206.28;;;13.51;52.82
30730;BME280;17476;48.458;7.928;2024-02-23T10:50:43;98215.53;;;13.42;52.11
30730;BME280;17476;48.458;7.928;2024-02-23T10:53:10;98208.78;;;13.34;51.40
30730;BME280;17476;48.458;7.928;2024-02-23T10:55:37;98208.22;;;12.47;54.51
30730;BME280;17476;48.458;7.928;2024-02-23T10:58:09;98214.25;;;12.05;55.92
30730;BME280;17476;48.458;7.928;2024-02-23T11:00:37;98206.59;;;11.78;55.67
30730;BME280;17476;48.458;7.928;2024-02-23T11:03:05;98212.03;;;11.83;57.34
30730;BME280;17476;48.458;7.928;2024-02-23T11:05:33;98206.69;;;11.65;56.26
30730;BME280;17476;48.458;7.928;2024-02-23T11:07:59;98217.22;;;11.58;57.07
30730;BME280;17476;48.458;7.928;2024-02-23T11:10:25;98209.06;;;11.41;55.96
30730;BME280;17476;48.458;7.928;2024-02-23T11:13:00;98210.97;;;11.59;58.11
30730;BME280;17476;48.458;7.928;2024-02-23T11:15:28;98215.78;;;11.62;56.16
30730;BME280;17476;48.458;7.928;2024-02-23T11:17:54;98204.91;;;11.34;56.80
30730;BME280;17476;48.458;7.928;2024-02-23T11:20:21;98200.72;;;11.26;58.49
30730;BME280;17476;48.458;7.928;2024-02-23T11:22:54;98218.47;;;11.17;57.59
30730;BME280;17476;48.458;7.928;2024-02-23T11:25:20;98217.38;;;11.00;58.81
30730;BME280;17476;48.458;7.928;2024-02-23T11:27:51;98212.69;;;11.09;59.39
30730;BME280;17476;48.458;7.928;2024-02-23T11:30:18;98215.34;;;11.02;59.29
30730;BME280;17476;48.458;7.928;2024-02-23T11:32:47;98218.00;;;10.89;58.97
30730;BME280;17476;48.458;7.928;2024-02-23T11:35:17;98208.06;;;11.11;57.72
30730;BME280;17476;48.458;7.928;2024-02-23T11:37:51;98203.72;;;10.91;59.07
30730;BME280;17476;48.458;7.928;2024-02-23T11:40:22;98191.59;;;10.97;60.08
30730;BME280;17476;48.458;7.928;2024-02-23T11:42:50;98195.06;;;10.98;61.10
30730;BME280;17476;48.458;7.928;2024-02-23T11:45:17;98199.59;;;11.09;60.66
30730;BME280;17476;48.458;7.928;2024-02-23T11:47:42;98183.69;;;11.42;59.60
30730;BME280;17476;48.458;7.928;2024-02-23T11:50:11;98192.69;;;11.53;59.11
30730;BME280;17476;48.458;7.928;2024-02-23T11:52:38;98195.81;;;11.36;56.65
30730;BME280;17476;48.458;7.928;2024-02-23T11:55:04;98193.38;;;11.41;57.13
30730;BME280;17476;48.458;7.928;2024-02-23T11:57:34;98189.38;;;11.64;57.69
30730;BME280;17476;48.458;7.928;2024-02-23T12:00:07;98181.84;;;11.74;57.67
30730;BME280;17476;48.458;7.928;2024-02-23T12:02:35;98179.91;;;11.94;56.37
30730;BME280;17476;48.458;7.928;2024-02-23T12:05:01;98180.50;;;12.15;57.79
30730;BME280;17476;48.458;7.928;2024-02-23T12:07:29;98179.16;;;11.87;56.04
30730;BME280;17476;48.458;7.928;2024-02-23T12:09:56;98170.59;;;11.73;58.05
30730;BME280;17476;48.458;7.928;2024-02-23T12:12:23;98178.56;;;11.85;58.60
30730;BME280;17476;48.458;7.928;2024-02-23T12:14:49;98181.63;;;11.82;57.63
30730;BME280;17476;48.458;7.928;2024-02-23T12:17:15;98179.78;;;11.83;58.24
30730;BME280;17476;48.458;7.928;2024-02-23T12:19:41;98175.25;;;11.65;57.44
30730;BME280;17476;48.458;7.928;2024-02-23T12:22:07;98178.16;;;11.57;58.19
30730;BME280;17476;48.458;7.928;2024-02-23T12:24:35;98171.22;;;11.69;59.63
30730;BME280;17476;48.458;7.928;2024-02-23T12:27:01;98166.00;;;12.12;58.97
30730;BME280;17476;48.458;7.928;2024-02-23T12:29:26;98161.78;;;12.66;57.63
30730;BME280;17476;48.458;7.928;2024-02-23T12:32:06;98157.44;;;13.62;55.34
30730;BME280;17476;48.458;7.928;2024-02-23T12:34:32;98153.69;;;14.16;53.61
30730;BME280;17476;48.458;7.928;2024-02-23T12:36:58;98150.31;;;14.44;50.99
30730;BME280;17476;48.458;7.928;2024-02-23T12:39:24;98148.03;;;14.36;50.03
30730;BME280;17476;48.458;7.928;2024-02-23T12:41:50;98157.66;;;14.07;51.39
30730;BME280;17476;48.458;7.928;2024-02-23T12:44:17;98156.19;;;13.64;51.42
30730;BME280;17476;48.458;7.928;2024-02-23T12:46:43;98170.97;;;13.05;52.62
30730;BME280;17476;48.458;7.928;2024-02-23T12:49:09;98165.47;;;12.95;52.89
30730;BME280;17476;48.458;7.928;2024-02-23T12:51:35;98158.47;;;13.49;53.67
30730;BME280;17476;48.458;7.928;2024-02-23T12:54:00;98160.63;;;13.64;51.95
30730;BME280;17476;48.458;7.928;2024-02-23T12:56:26;98167.94;;;13.50;53.07
30730;BME280;17476;48.458;7.928;2024-02-23T12:58:52;98158.03;;;13.76;53.58
30730;BME280;17476;48.458;7.928;2024-02-23T13:01:21;98157.50;;;14.49;51.04
30730;BME280;17476;48.458;7.928;2024-02-23T13:03:48;98145.56;;;14.06;49.19